sensor_id;sensor_type;location;lat;lon;timestamp;pressure;altitude;pressure_sealevel;temperature;humidity
38227;BME280;24026;49.446;8.576;2022-07-17T00:01:57;101374.13;;;25.50;31.29
38227;BME280;24026;49.446;8.576;2022-07-17T00:04:17;101377.47;;;25.47;31.16
38227;BME280;24026;49.446;8.576;2022-07-17T00:06:37;101375.88;;;25.46;31.35
38227;BME280;24026;49.446;8.576;2022-07-17T00:08:57;101373.47;;;25.45;31.22
38227;BME280;24026;49.446;8.576;2022-07-17T00:11:18;101369.16;;;25.44;31.15
38227;BME280;24026;49.446;8.576;2022-07-17T00:13:38;101367.25;;;25.44;31.18
38227;BME280;24026;49.446;8.576;2022-07-17T00:15:58;101365.94;;;25.42;31.30
38227;BME280;24026;49.446;8.576;2022-07-17T00:18:19;101369.78;;;25.41;31.27
38227;BME280;24026;49.446;8.576;2022-07-17T00:20:39;101365.47;;;25.40;31.27
38227;BME280;24026;49.446;8.576;2022-07-17T00:22:59;101362.28;;;25.38;31.43
38227;BME280;24026;49.446;8.576;2022-07-17T00:25:19;101361.47;;;25.37;31.10
38227;BME280;24026;49.446;8.576;2022-07-17T00:27:40;101368.81;;;25.37;31.36
38227;BME280;24026;49.446;8.576;2022-07-17T00:30:00;101363.72;;;25.35;31.20
38227;BME280;24026;49.446;8.576;2022-07-17T00:32:20;101357.47;;;25.35;31.29
38227;BME280;24026;49.446;8.576;2022-07-17T00:34:43;101369.78;;;25.32;31.35
38227;BME280;24026;49.446;8.576;2022-07-17T00:37:03;101364.66;;;25.30;31.43
38227;BME280;24026;49.446;8.576;2022-07-17T00:39:24;101368.50;;;25.29;31.41
38227;BME280;24026;49.446;8.576;2022-07-17T00:41:44;101364.78;;;25.25;31.36
38227;BME280;24026;49.446;8.576;2022-07-17T00:44:05;101366.91;;;25.28;31.35
38227;BME280;24026;49.446;8.576;2022-07-17T00:46:26;101365.56;;;25.26;31.31
38227;BME280;24026;49.446;8.576;2022-07-17T00:48:47;101372.66;;;25.27;31.38
38227;BME280;24026;49.446;8.576;2022-07-17T00:51:07;101368.28;;;25.26;31.32
38227;BME280;24026;49.446;8.576;2022-07-17T00:53:28;101360.47;;;25.24;31.44
38227;BME280;24026;49.446;8.576;2022-07-17T00:55:51;101357.75;;;25.24;31.38
38227;BME280;24026;49.446;8.576;2022-07-17T00:58:16;101366.53;;;25.21;31.43
38227;BME280;24026;49.446;8.576;2022-07-17T01:00:37;101358.38;;;25.21;31.39
38227;BME280;24026;49.446;8.576;2022-07-17T01:02:58;101359.81;;;25.19;31.37
38227;BME280;24026;49.446;8.576;2022-07-17T01:05:19;101354.69;;;25.17;31.38
38227;BME280;24026;49.446;8.576;2022-07-17T01:07:39;101355.50;;;25.18;31.49
38227;BME280;24026;49.446;8.576;2022-07-17T01:10:00;101355.00;;;25.15;31.52
38227;BME280;24026;49.446;8.576;2022-07-17T01:12:20;101352.59;;;25.14;31.44
38227;BME280;24026;49.446;8.576;2022-07-17T01:14:41;101352.09;;;25.12;31.70
38227;BME280;24026;49.446;8.576;2022-07-17T01:17:01;101351.31;;;25.11;31.50
38227;BME280;24026;49.446;8.576;2022-07-17T01:19:21;101356.75;;;25.11;31.63
38227;BME280;24026;49.446;8.576;2022-07-17T01:21:43;101358.69;;;25.11;31.46
38227;BME280;24026;49.446;8.576;2022-07-17T01:24:05;101367.16;;;25.09;31.52
38227;BME280;24026;49.446;8.576;2022-07-17T01:26:25;101362.03;;;25.08;31.62
38227;BME280;24026;49.446;8.576;2022-07-17T01:28:45;101362.81;;;25.08;31.52
38227;BME280;24026;49.446;8.576;2022-07-17T01:31:05;101363.47;;;25.05;31.53
38227;BME280;24026;49.446;8.576;2022-07-17T01:33:26;101366.97;;;25.06;31.60
38227;BME280;24026;49.446;8.576;2022-07-17T01:35:46;101361.88;;;25.04;31.62
38227;BME280;24026;49.446;8.576;2022-07-17T01:38:06;101361.03;;;25.04;31.63
38227;BME280;24026;49.446;8.576;2022-07-17T01:40:27;101363.28;;;25.02;31.71
38227;BME280;24026;49.446;8.576;2022-07-17T01:42:48;101367.63;;;25.03;31.71
38227;BME280;24026;49.446;8.576;2022-07-17T01:45:09;101374.47;;;25.00;31.65
38227;BME280;24026;49.446;8.576;2022-07-17T01:47:30;101373.38;;;25.01;31.63
38227;BME280;24026;49.446;8.576;2022-07-17T01:49:51;101368.25;;;25.00;31.67
38227;BME280;24026;49.446;8.576;2022-07-17T01:52:12;101371.75;;;25.00;31.62
38227;BME280;24026;49.446;8.576;2022-07-17T01:54:33;101375.94;;;24.98;31.71
38227;BME280;24026;49.446;8.576;2022-07-17T01:56:53;101379.13;;;25.00;31.61
38227;BME280;24026;49.446;8.576;2022-07-17T01:59:13;101375.41;;;24.95;31.68
38227;BME280;24026;49.446;8.576;2022-07-17T02:01:33;101373.84;;;24.94;31.73
38227;BME280;24026;49.446;8.576;2022-07-17T02:03:54;101365.16;;;24.92;31.63
38227;BME280;24026;49.446;8.576;2022-07-17T02:06:14;101365.16;;;24.92;31.59
38227;BME280;24026;49.446;8.576;2022-07-17T02:08:34;101370.94;;;24.91;31.72
38227;BME280;24026;49.446;8.576;2022-07-17T02:10:55;101361.66;;;24.92;31.69
38227;BME280;24026;49.446;8.576;2022-07-17T02:13:15;101362.28;;;24.89;31.67
38227;BME280;24026;49.446;8.576;2022-07-17T02:15:35;101357.97;;;24.88;31.69
38227;BME280;24026;49.446;8.576;2022-07-17T02:17:56;101355.56;;;24.86;31.67
38227;BME280;24026;49.446;8.576;2022-07-17T02:20:16;101353.16;;;24.85;31.77
38227;BME280;24026;49.446;8.576;2022-07-17T02:22:37;101359.41;;;24.85;31.76
38227;BME280;24026;49.446;8.576;2022-07-17T02:24:57;101358.59;;;24.85;31.78
38227;BME280;24026;49.446;8.576;2022-07-17T02:27:17;101349.66;;;24.84;31.67
38227;BME280;24026;49.446;8.576;2022-07-17T02:29:38;101347.56;;;24.81;31.77
38227;BME280;24026;49.446;8.576;2022-07-17T02:31:58;101355.41;;;24.83;31.75
38227;BME280;24026;49.446;8.576;2022-07-17T02:34:18;101354.91;;;24.81;31.85
38227;BME280;24026;49.446;8.576;2022-07-17T02:36:38;101355.41;;;24.83;31.71
38227;BME280;24026;49.446;8.576;2022-07-17T02:38:59;101356.81;;;24.80;31.78
38227;BME280;24026;49.446;8.576;2022-07-17T02:41:19;101361.78;;;24.78;31.70
38227;BME280;24026;49.446;8.576;2022-07-17T02:43:39;101351.69;;;24.78;31.70
38227;BME280;24026;49.446;8.576;2022-07-17T02:46:00;101362.09;;;24.76;31.80
38227;BME280;24026;49.446;8.576;2022-07-17T02:48:20;101355.03;;;24.75;31.67
38227;BME280;24026;49.446;8.576;2022-07-17T02:50:41;101363.50;;;24.74;31.76
38227;BME280;24026;49.446;8.576;2022-07-17T02:53:01;101360.31;;;24.72;31.87
38227;BME280;24026;49.446;8.576;2022-07-17T02:55:21;101362.25;;;24.71;31.76
38227;BME280;24026;49.446;8.576;2022-07-17T02:57:41;101362.53;;;24.70;31.84
38227;BME280;24026;49.446;8.576;2022-07-17T03:00:05;101359.84;;;24.70;32.04
38227;BME280;24026;49.446;8.576;2022-07-17T03:02:26;101353.91;;;24.68;31.85
38227;BME280;24026;49.446;8.576;2022-07-17T03:04:47;101359.34;;;24.68;31.88
38227;BME280;24026;49.446;8.576;2022-07-17T03:07:07;101358.84;;;24.66;31.98
38227;BME280;24026;49.446;8.576;2022-07-17T03:09:27;101356.47;;;24.64;31.87
38227;BME280;24026;49.446;8.576;2022-07-17T03:11:48;101356.13;;;24.66;31.96
38227;BME280;24026;49.446;8.576;2022-07-17T03:14:08;101354.38;;;24.61;31.91
38227;BME280;24026;49.446;8.576;2022-07-17T03:16:28;101350.22;;;24.64;31.81
38227;BME280;24026;49.446;8.576;2022-07-17T03:18:48;101343.81;;;24.59;31.89
38227;BME280;24026;49.446;8.576;2022-07-17T03:21:09;101350.03;;;24.60;31.85
38227;BME280;24026;49.446;8.576;2022-07-17T03:23:29;101350.81;;;24.60;32.03
38227;BME280;24026;49.446;8.576;2022-07-17T03:25:49;101348.94;;;24.61;31.91
38227;BME280;24026;49.446;8.576;2022-07-17T03:28:09;101349.06;;;24.56;32.08
38227;BME280;24026;49.446;8.576;2022-07-17T03:30:30;101348.25;;;24.55;32.09
38227;BME280;24026;49.446;8.576;2022-07-17T03:32:50;101347.47;;;24.55;31.96
38227;BME280;24026;49.446;8.576;2022-07-17T03:35:10;101353.19;;;24.53;31.93
38227;BME280;24026;49.446;8.576;2022-07-17T03:37:31;101353.97;;;24.54;31.99
38227;BME280;24026;49.446;8.576;2022-07-17T03:39:51;101355.88;;;24.53;31.98
38227;BME280;24026;49.446;8.576;2022-07-17T03:42:11;101354.09;;;24.49;31.97
38227;BME280;24026;49.446;8.576;2022-07-17T03:44:31;101355.41;;;24.51;32.03
38227;BME280;24026;49.446;8.576;2022-07-17T03:46:52;101356.50;;;24.50;32.20
38227;BME280;24026;49.446;8.576;2022-07-17T03:49:12;101356.81;;;24.49;32.06
38227;BME280;24026;49.446;8.576;2022-07-17T03:51:32;101352.81;;;24.46;32.19
38227;BME280;24026;49.446;8.576;2022-07-17T03:53:52;101357.13;;;24.47;31.94
38227;BME280;24026;49.446;8.576;2022-07-17T03:56:13;101359.84;;;24.47;31.99
38227;BME280;24026;49.446;8.576;2022-07-17T03:58:34;101358.25;;;24.46;32.05
38227;BME280;24026;49.446;8.576;2022-07-17T04:00:54;101366.41;;;24.46;31.95
38227;BME280;24026;49.446;8.576;2022-07-17T04:03:15;101357.25;;;24.42;32.05
38227;BME280;24026;49.446;8.576;2022-07-17T04:05:35;101368.66;;;24.44;32.15
38227;BME280;24026;49.446;8.576;2022-07-17T04:07:55;101370.06;;;24.41;32.05
38227;BME280;24026;49.446;8.576;2022-07-17T04:10:15;101368.94;;;24.42;32.05
38227;BME280;24026;49.446;8.576;2022-07-17T04:12:36;101373.09;;;24.40;32.18
38227;BME280;24026;49.446;8.576;2022-07-17T04:14:56;101377.41;;;24.41;32.08
38227;BME280;24026;49.446;8.576;2022-07-17T04:17:16;101385.03;;;24.39;32.19
38227;BME280;24026;49.446;8.576;2022-07-17T04:19:37;101394.31;;;24.38;32.05
38227;BME280;24026;49.446;8.576;2022-07-17T04:21:57;101383.78;;;24.36;32.07
38227;BME280;24026;49.446;8.576;2022-07-17T04:24:17;101397.66;;;24.35;32.18
38227;BME280;24026;49.446;8.576;2022-07-17T04:26:38;101389.50;;;24.35;32.13
38227;BME280;24026;49.446;8.576;2022-07-17T04:28:58;101392.41;;;24.38;31.99
38227;BME280;24026;49.446;8.576;2022-07-17T04:31:18;101389.19;;;24.36;32.16
38227;BME280;24026;49.446;8.576;2022-07-17T04:33:38;101380.56;;;24.34;32.03
38227;BME280;24026;49.446;8.576;2022-07-17T04:35:59;101385.19;;;24.34;32.07
38227;BME280;24026;49.446;8.576;2022-07-17T04:38:19;101378.97;;;24.33;32.08
38227;BME280;24026;49.446;8.576;2022-07-17T04:40:39;101380.06;;;24.32;32.02
38227;BME280;24026;49.446;8.576;2022-07-17T04:42:59;101383.13;;;24.31;32.17
38227;BME280;24026;49.446;8.576;2022-07-17T04:45:20;101385.19;;;24.34;32.20
38227;BME280;24026;49.446;8.576;2022-07-17T04:47:40;101382.78;;;24.32;32.13
38227;BME280;24026;49.446;8.576;2022-07-17T04:50:00;101385.50;;;24.32;32.13
38227;BME280;24026;49.446;8.576;2022-07-17T04:52:21;101389.03;;;24.33;32.20
38227;BME280;24026;49.446;8.576;2022-07-17T04:54:41;101390.63;;;24.34;32.14
38227;BME280;24026;49.446;8.576;2022-07-17T04:57:01;101384.56;;;24.37;32.09
38227;BME280;24026;49.446;8.576;2022-07-17T04:59:21;101386.78;;;24.35;32.10
38227;BME280;24026;49.446;8.576;2022-07-17T05:01:42;101389.66;;;24.30;31.98
38227;BME280;24026;49.446;8.576;2022-07-17T05:04:02;101395.25;;;24.33;32.15
38227;BME280;24026;49.446;8.576;2022-07-17T05:06:24;101389.81;;;24.33;32.23
38227;BME280;24026;49.446;8.576;2022-07-17T05:08:44;101398.28;;;24.32;32.00
38227;BME280;24026;49.446;8.576;2022-07-17T05:11:04;101401.47;;;24.34;32.00
38227;BME280;24026;49.446;8.576;2022-07-17T05:13:24;101405.81;;;24.35;32.00
38227;BME280;24026;49.446;8.576;2022-07-17T05:15:45;101404.41;;;24.37;31.90
38227;BME280;24026;49.446;8.576;2022-07-17T05:18:05;101407.44;;;24.36;31.85
38227;BME280;24026;49.446;8.576;2022-07-17T05:20:26;101410.63;;;24.38;31.97
38227;BME280;24026;49.446;8.576;2022-07-17T05:22:46;101412.22;;;24.39;32.05
38227;BME280;24026;49.446;8.576;2022-07-17T05:25:06;101421.50;;;24.38;31.82
38227;BME280;24026;49.446;8.576;2022-07-17T05:27:27;101417.97;;;24.37;32.00
38227;BME280;24026;49.446;8.576;2022-07-17T05:29:47;101411.13;;;24.40;31.92
38227;BME280;24026;49.446;8.576;2022-07-17T05:32:07;101421.66;;;24.41;31.98
38227;BME280;24026;49.446;8.576;2022-07-17T05:34:28;101416.53;;;24.40;31.94
38227;BME280;24026;49.446;8.576;2022-07-17T05:36:48;101415.44;;;24.41;31.93
38227;BME280;24026;49.446;8.576;2022-07-17T05:39:09;101418.94;;;24.41;31.94
38227;BME280;24026;49.446;8.576;2022-07-17T05:41:30;101417.84;;;24.42;32.04
38227;BME280;24026;49.446;8.576;2022-07-17T05:43:51;101419.75;;;24.42;31.84
38227;BME280;24026;49.446;8.576;2022-07-17T05:46:11;101416.41;;;24.45;31.74
38227;BME280;24026;49.446;8.576;2022-07-17T05:48:31;101424.25;;;24.47;31.91
38227;BME280;24026;49.446;8.576;2022-07-17T05:50:52;101425.88;;;24.48;31.70
38227;BME280;24026;49.446;8.576;2022-07-17T05:53:12;101428.28;;;24.49;31.72
38227;BME280;24026;49.446;8.576;2022-07-17T05:55:34;101425.75;;;24.53;31.72
38227;BME280;24026;49.446;8.576;2022-07-17T05:57:54;101423.81;;;24.53;31.67
38227;BME280;24026;49.446;8.576;2022-07-17T06:00:14;101424.31;;;24.55;31.66
38227;BME280;24026;49.446;8.576;2022-07-17T06:02:35;101426.72;;;24.57;31.50
38227;BME280;24026;49.446;8.576;2022-07-17T06:04:55;101430.44;;;24.61;31.60
38227;BME280;24026;49.446;8.576;2022-07-17T06:07:15;101435.88;;;24.61;31.51
38227;BME280;24026;49.446;8.576;2022-07-17T06:09:36;101441.50;;;24.65;31.22
38227;BME280;24026;49.446;8.576;2022-07-17T06:11:56;101437.34;;;24.67;31.39
38227;BME280;24026;49.446;8.576;2022-07-17T06:14:16;101438.94;;;24.68;31.44
38227;BME280;24026;49.446;8.576;2022-07-17T06:16:37;101438.66;;;24.70;31.38
38227;BME280;24026;49.446;8.576;2022-07-17T06:18:57;101444.56;;;24.72;31.31
38227;BME280;24026;49.446;8.576;2022-07-17T06:21:17;101450.78;;;24.72;31.25
38227;BME280;24026;49.446;8.576;2022-07-17T06:23:38;101454.03;;;24.74;31.24
38227;BME280;24026;49.446;8.576;2022-07-17T06:25:58;101451.78;;;24.76;31.18
38227;BME280;24026;49.446;8.576;2022-07-17T06:28:18;101456.91;;;24.78;31.16
38227;BME280;24026;49.446;8.576;2022-07-17T06:30:39;101454.38;;;24.82;30.94
38227;BME280;24026;49.446;8.576;2022-07-17T06:32:59;101452.13;;;24.84;31.12
38227;BME280;24026;49.446;8.576;2022-07-17T06:35:19;101458.06;;;24.86;30.83
38227;BME280;24026;49.446;8.576;2022-07-17T06:37:39;101456.94;;;24.87;31.06
38227;BME280;24026;49.446;8.576;2022-07-17T06:40:00;101455.84;;;24.88;31.12
38227;BME280;24026;49.446;8.576;2022-07-17T06:42:20;101456.00;;;24.91;30.97
38227;BME280;24026;49.446;8.576;2022-07-17T06:44:41;101458.09;;;24.94;30.93
38227;BME280;24026;49.446;8.576;2022-07-17T06:47:01;101453.63;;;24.99;30.86
38227;BME280;24026;49.446;8.576;2022-07-17T06:49:21;101449.50;;;25.01;30.79
38227;BME280;24026;49.446;8.576;2022-07-17T06:51:41;101455.41;;;25.03;30.62
38227;BME280;24026;49.446;8.576;2022-07-17T06:54:05;101452.06;;;25.06;30.70
38227;BME280;24026;49.446;8.576;2022-07-17T06:56:25;101448.75;;;25.09;30.55
38227;BME280;24026;49.446;8.576;2022-07-17T06:58:46;101456.59;;;25.11;30.65
38227;BME280;24026;49.446;8.576;2022-07-17T07:01:06;101451.63;;;25.13;30.64
38227;BME280;24026;49.446;8.576;2022-07-17T07:03:26;101456.75;;;25.14;30.52
38227;BME280;24026;49.446;8.576;2022-07-17T07:05:47;101454.19;;;25.18;30.57
38227;BME280;24026;49.446;8.576;2022-07-17T07:08:07;101451.97;;;25.20;30.44
38227;BME280;24026;49.446;8.576;2022-07-17T07:10:27;101453.25;;;25.23;30.46
38227;BME280;24026;49.446;8.576;2022-07-17T07:12:48;101449.41;;;25.24;30.29
38227;BME280;24026;49.446;8.576;2022-07-17T07:15:09;101454.53;;;25.25;30.33
38227;BME280;24026;49.446;8.576;2022-07-17T07:17:29;101452.00;;;25.29;30.41
38227;BME280;24026;49.446;8.576;2022-07-17T07:19:51;101456.03;;;25.31;30.40
38227;BME280;24026;49.446;8.576;2022-07-17T07:22:11;101461.94;;;25.33;30.36
38227;BME280;24026;49.446;8.576;2022-07-17T07:24:32;101448.81;;;25.36;30.34
38227;BME280;24026;49.446;8.576;2022-07-17T07:26:52;101443.06;;;25.37;30.24
38227;BME280;24026;49.446;8.576;2022-07-17T07:29:12;101443.22;;;25.41;30.21
38227;BME280;24026;49.446;8.576;2022-07-17T07:31:32;101443.75;;;25.43;30.28
38227;BME280;24026;49.446;8.576;2022-07-17T07:33:53;101436.06;;;25.45;30.24
38227;BME280;24026;49.446;8.576;2022-07-17T07:36:13;101429.47;;;25.46;30.10
38227;BME280;24026;49.446;8.576;2022-07-17T07:38:33;101427.25;;;25.48;29.92
38227;BME280;24026;49.446;8.576;2022-07-17T07:40:54;101431.25;;;25.50;30.17
38227;BME280;24026;49.446;8.576;2022-07-17T07:43:14;101433.66;;;25.52;30.13
38227;BME280;24026;49.446;8.576;2022-07-17T07:45:34;101434.97;;;25.55;29.97
38227;BME280;24026;49.446;8.576;2022-07-17T07:47:55;101425.34;;;25.57;30.15
38227;BME280;24026;49.446;8.576;2022-07-17T07:50:15;101424.72;;;25.60;29.79
38227;BME280;24026;49.446;8.576;2022-07-17T07:52:36;101418.63;;;25.63;29.78
38227;BME280;24026;49.446;8.576;2022-07-17T07:54:56;101425.69;;;25.64;29.64
38227;BME280;24026;49.446;8.576;2022-07-17T07:57:16;101428.88;;;25.66;29.83
38227;BME280;24026;49.446;8.576;2022-07-17T07:59:37;101432.09;;;25.68;29.75
38227;BME280;24026;49.446;8.576;2022-07-17T08:01:58;101426.31;;;25.70;29.86
38227;BME280;24026;49.446;8.576;2022-07-17T08:04:18;101433.03;;;25.73;29.81
38227;BME280;24026;49.446;8.576;2022-07-17T08:06:39;101428.09;;;25.75;29.63
38227;BME280;24026;49.446;8.576;2022-07-17T08:08:59;101428.56;;;25.77;29.49
38227;BME280;24026;49.446;8.576;2022-07-17T08:11:19;101438.81;;;25.80;29.58
38227;BME280;24026;49.446;8.576;2022-07-17T08:13:39;101438.50;;;25.81;29.49
38227;BME280;24026;49.446;8.576;2022-07-17T08:16:00;101427.31;;;25.83;29.55
38227;BME280;24026;49.446;8.576;2022-07-17T08:18:21;101435.94;;;25.85;29.41
38227;BME280;24026;49.446;8.576;2022-07-17T08:20:41;101425.53;;;25.87;29.42
38227;BME280;24026;49.446;8.576;2022-07-17T08:23:02;101426.81;;;25.89;29.41
38227;BME280;24026;49.446;8.576;2022-07-17T08:25:23;101428.41;;;25.91;29.26
38227;BME280;24026;49.446;8.576;2022-07-17T08:27:43;101430.50;;;25.94;29.44
38227;BME280;24026;49.446;8.576;2022-07-17T08:30:04;101423.66;;;25.96;29.42
38227;BME280;24026;49.446;8.576;2022-07-17T08:32:25;101429.56;;;25.98;29.51
38227;BME280;24026;49.446;8.576;2022-07-17T08:34:45;101434.38;;;26.01;29.28
38227;BME280;24026;49.446;8.576;2022-07-17T08:37:07;101428.59;;;26.03;29.35
38227;BME280;24026;49.446;8.576;2022-07-17T08:39:27;101425.22;;;26.06;29.35
38227;BME280;24026;49.446;8.576;2022-07-17T08:41:47;101426.81;;;26.07;29.30
38227;BME280;24026;49.446;8.576;2022-07-17T08:44:08;101424.56;;;26.09;29.36
38227;BME280;24026;49.446;8.576;2022-07-17T08:46:28;101417.69;;;26.12;29.11
38227;BME280;24026;49.446;8.576;2022-07-17T08:48:49;101424.72;;;26.13;29.07
38227;BME280;24026;49.446;8.576;2022-07-17T08:51:14;101426.03;;;26.15;29.15
38227;BME280;24026;49.446;8.576;2022-07-17T08:53:35;101426.50;;;26.17;28.97
38227;BME280;24026;49.446;8.576;2022-07-17T08:55:55;101433.22;;;26.20;29.15
38227;BME280;24026;49.446;8.576;2022-07-17T08:58:16;101430.97;;;26.22;29.06
38227;BME280;24026;49.446;8.576;2022-07-17T09:00:36;101427.94;;;26.23;28.98
38227;BME280;24026;49.446;8.576;2022-07-17T09:03:01;101424.56;;;26.27;28.76
38227;BME280;24026;49.446;8.576;2022-07-17T09:05:22;101430.81;;;26.27;28.88
38227;BME280;24026;49.446;8.576;2022-07-17T09:07:46;101430.16;;;26.30;28.98
38227;BME280;24026;49.446;8.576;2022-07-17T09:10:07;101420.88;;;26.31;28.73
38227;BME280;24026;49.446;8.576;2022-07-17T09:12:28;101426.47;;;26.35;28.72
38227;BME280;24026;49.446;8.576;2022-07-17T09:14:48;101422.63;;;26.36;28.94
38227;BME280;24026;49.446;8.576;2022-07-17T09:17:09;101425.47;;;26.39;28.71
38227;BME280;24026;49.446;8.576;2022-07-17T09:19:31;101422.75;;;26.39;28.88
38227;BME280;24026;49.446;8.576;2022-07-17T09:22:02;101413.94;;;26.42;28.63
38227;BME280;24026;49.446;8.576;2022-07-17T09:24:23;101413.28;;;26.46;28.71
38227;BME280;24026;49.446;8.576;2022-07-17T09:26:43;101410.25;;;26.47;28.74
38227;BME280;24026;49.446;8.576;2022-07-17T09:29:04;101405.28;;;26.49;28.60
38227;BME280;24026;49.446;8.576;2022-07-17T09:31:25;101403.00;;;26.51;28.50
38227;BME280;24026;49.446;8.576;2022-07-17T09:33:46;101400.78;;;26.53;28.72
38227;BME280;24026;49.446;8.576;2022-07-17T09:36:08;101402.03;;;26.56;28.64
38227;BME280;24026;49.446;8.576;2022-07-17T09:40:49;101396.72;;;26.59;28.51
38227;BME280;24026;49.446;8.576;2022-07-17T09:43:44;101398.81;;;26.62;28.61
38227;BME280;24026;49.446;8.576;2022-07-17T09:46:05;101390.63;;;26.62;28.50
38227;BME280;24026;49.446;8.576;2022-07-17T09:48:26;101393.53;;;26.66;28.63
38227;BME280;24026;49.446;8.576;2022-07-17T09:50:47;101389.69;;;26.67;28.54
38227;BME280;24026;49.446;8.576;2022-07-17T09:53:07;101386.63;;;26.69;28.38
38227;BME280;24026;49.446;8.576;2022-07-17T09:55:31;101385.16;;;26.71;28.48
38227;BME280;24026;49.446;8.576;2022-07-17T09:57:53;101393.84;;;26.73;28.27
38227;BME280;24026;49.446;8.576;2022-07-17T10:00:14;101395.91;;;26.76;28.43
38227;BME280;24026;49.446;8.576;2022-07-17T10:02:35;101394.78;;;26.77;28.22
38227;BME280;24026;49.446;8.576;2022-07-17T10:04:55;101393.34;;;26.80;28.16
38227;BME280;24026;49.446;8.576;2022-07-17T10:07:16;101395.72;;;26.82;28.35
38227;BME280;24026;49.446;8.576;2022-07-17T10:09:36;101389.59;;;26.85;28.19
38227;BME280;24026;49.446;8.576;2022-07-17T10:11:57;101386.22;;;26.88;28.02
38227;BME280;24026;49.446;8.576;2022-07-17T10:14:18;101390.56;;;26.89;28.14
38227;BME280;24026;49.446;8.576;2022-07-17T10:16:39;101389.91;;;26.92;28.04
38227;BME280;24026;49.446;8.576;2022-07-17T10:19:00;101390.69;;;26.92;28.25
38227;BME280;24026;49.446;8.576;2022-07-17T10:21:22;101388.44;;;26.94;27.93
38227;BME280;24026;49.446;8.576;2022-07-17T10:23:43;101388.09;;;26.96;28.19
38227;BME280;24026;49.446;8.576;2022-07-17T10:26:08;101388.56;;;26.98;28.07
38227;BME280;24026;49.446;8.576;2022-07-17T10:28:42;101390.97;;;26.99;28.13
38227;BME280;24026;49.446;8.576;2022-07-17T10:31:02;101394.66;;;27.04;28.00
38227;BME280;24026;49.446;8.576;2022-07-17T10:33:22;101395.13;;;27.06;27.99
38227;BME280;24026;49.446;8.576;2022-07-17T10:35:45;101395.59;;;27.08;27.92
38227;BME280;24026;49.446;8.576;2022-07-17T10:38:12;101389.81;;;27.09;27.79
38227;BME280;24026;49.446;8.576;2022-07-17T10:40:33;101392.53;;;27.09;27.80
38227;BME280;24026;49.446;8.576;2022-07-17T10:42:57;101394.28;;;27.14;28.13
38227;BME280;24026;49.446;8.576;2022-07-17T10:45:19;101390.44;;;27.15;27.72
38227;BME280;24026;49.446;8.576;2022-07-17T10:50:06;101391.34;;;27.19;27.43
38227;BME280;24026;49.446;8.576;2022-07-17T10:52:26;101386.69;;;27.20;27.67
38227;BME280;24026;49.446;8.576;2022-07-17T10:54:47;101387.19;;;27.22;27.47
38227;BME280;24026;49.446;8.576;2022-07-17T10:57:07;101381.03;;;27.25;27.75
38227;BME280;24026;49.446;8.576;2022-07-17T10:59:28;101383.44;;;27.26;27.50
38227;BME280;24026;49.446;8.576;2022-07-17T11:01:55;101375.75;;;27.28;27.67
38227;BME280;24026;49.446;8.576;2022-07-17T11:04:15;101378.16;;;27.30;27.57
38227;BME280;24026;49.446;8.576;2022-07-17T11:06:36;101385.22;;;27.31;27.26
38227;BME280;24026;49.446;8.576;2022-07-17T11:09:07;101383.75;;;27.33;27.44
38227;BME280;24026;49.446;8.576;2022-07-17T11:11:37;101379.56;;;27.36;27.29
38227;BME280;24026;49.446;8.576;2022-07-17T11:16:28;101375.38;;;27.39;27.33
38227;BME280;24026;49.446;8.576;2022-07-17T11:18:49;101374.56;;;27.38;27.25
38227;BME280;24026;49.446;8.576;2022-07-17T11:21:10;101373.91;;;27.41;27.27
38227;BME280;24026;49.446;8.576;2022-07-17T11:23:31;101375.50;;;27.42;26.91
38227;BME280;24026;49.446;8.576;2022-07-17T11:25:59;101371.66;;;27.43;27.35
38227;BME280;24026;49.446;8.576;2022-07-17T11:28:26;101369.72;;;27.44;27.21
38227;BME280;24026;49.446;8.576;2022-07-17T11:30:47;101374.50;;;27.47;27.27
38227;BME280;24026;49.446;8.576;2022-07-17T11:33:14;101372.25;;;27.49;27.23
38227;BME280;24026;49.446;8.576;2022-07-17T11:35:35;101361.00;;;27.50;27.32
38227;BME280;24026;49.446;8.576;2022-07-17T11:37:55;101362.56;;;27.51;27.07
38227;BME280;24026;49.446;8.576;2022-07-17T11:40:16;101367.69;;;27.53;27.25
38227;BME280;24026;49.446;8.576;2022-07-17T11:42:36;101361.13;;;27.54;27.10
38227;BME280;24026;49.446;8.576;2022-07-17T11:44:57;101360.47;;;27.57;27.09
38227;BME280;24026;49.446;8.576;2022-07-17T11:47:21;101369.91;;;27.60;26.86
38227;BME280;24026;49.446;8.576;2022-07-17T11:49:42;101364.91;;;27.62;27.13
38227;BME280;24026;49.446;8.576;2022-07-17T11:52:09;101359.13;;;27.63;27.07
38227;BME280;24026;49.446;8.576;2022-07-17T11:54:30;101351.72;;;27.64;27.04
38227;BME280;24026;49.446;8.576;2022-07-17T11:56:51;101347.53;;;27.66;27.16
38227;BME280;24026;49.446;8.576;2022-07-17T11:59:13;101350.72;;;27.68;26.81
38227;BME280;24026;49.446;8.576;2022-07-17T12:01:44;101359.38;;;27.70;26.90
38227;BME280;24026;49.446;8.576;2022-07-17T12:04:06;101361.78;;;27.72;26.80
38227;BME280;24026;49.446;8.576;2022-07-17T12:06:27;101354.38;;;27.72;26.69
38227;BME280;24026;49.446;8.576;2022-07-17T12:08:50;101354.50;;;27.76;26.86
38227;BME280;24026;49.446;8.576;2022-07-17T12:11:12;101351.78;;;27.76;26.66
38227;BME280;24026;49.446;8.576;2022-07-17T12:13:39;101353.03;;;27.79;26.88
38227;BME280;24026;49.446;8.576;2022-07-17T12:16:00;101349.97;;;27.80;26.70
38227;BME280;24026;49.446;8.576;2022-07-17T12:18:24;101349.66;;;27.82;26.96
38227;BME280;24026;49.446;8.576;2022-07-17T12:20:46;101346.91;;;27.82;26.86
38227;BME280;24026;49.446;8.576;2022-07-17T12:23:07;101339.97;;;27.84;26.59
38227;BME280;24026;49.446;8.576;2022-07-17T12:25:27;101351.34;;;27.86;26.72